createdAt,value
2023-03-18T00:00:43.764Z,100867.84
2023-03-18T00:03:13.281Z,100867.53
2023-03-18T00:05:42.370Z,100860.27
2023-03-18T00:08:10.852Z,100865.52
2023-03-18T00:10:39.842Z,100861.19
2023-03-18T00:13:08.003Z,100861.38
2023-03-18T00:15:42.833Z,100866.65
2023-03-18T00:18:11.378Z,100860.45
2023-03-18T00:20:39.713Z,100866.25
2023-03-18T00:23:10.379Z,100862.73
2023-03-18T00:25:39.143Z,100864.34
2023-03-18T00:28:07.551Z,100865.63
2023-03-18T00:30:38.221Z,100861.94
2023-03-18T00:33:07.504Z,100862.37
2023-03-18T00:35:37.809Z,100872.09
2023-03-18T00:38:16.093Z,100867.19
2023-03-18T00:40:53.756Z,100868.42
2023-03-18T00:43:23.380Z,100865.05
2023-03-18T00:45:51.682Z,100863.85
2023-03-18T00:48:24.313Z,100867.46
2023-03-18T00:50:53.046Z,100866.63
2023-03-18T00:53:23.889Z,100866.16
2023-03-18T00:55:52.802Z,100867.46
2023-03-18T00:58:20.863Z,100864.65
2023-03-18T01:00:49.343Z,100864.92
2023-03-18T01:03:19.044Z,100869.03
2023-03-18T01:05:47.730Z,100873.56
2023-03-18T01:08:15.872Z,100869.91
2023-03-18T01:10:44.185Z,100871.35
2023-03-18T01:13:12.788Z,100873.77
2023-03-18T01:15:42.069Z,100866.89
2023-03-18T01:18:11.487Z,100872.91
2023-03-18T01:20:39.855Z,100874.13
2023-03-18T01:23:09.059Z,100876.12
2023-03-18T01:25:38.881Z,100876.77
2023-03-18T01:28:07.205Z,100878.21
2023-03-18T01:30:38.506Z,100880.34
2023-03-18T01:33:08.421Z,100868.35
2023-03-18T01:35:39.784Z,100873.73
2023-03-18T01:38:08.723Z,100873.31
2023-03-18T01:40:40.349Z,100872.09
2023-03-18T01:43:10.752Z,100875.48
2023-03-18T01:45:40.519Z,100878.84
2023-03-18T01:48:14.070Z,100879.02
2023-03-18T01:50:43.579Z,100866.45
2023-03-18T01:53:14.258Z,100869.88
2023-03-18T01:55:42.699Z,100876.32
2023-03-18T01:58:17.415Z,100884.42
2023-03-18T02:00:50.065Z,100894.31
2023-03-18T02:03:20.318Z,100899.60
2023-03-18T02:05:50.131Z,100895.61
2023-03-18T02:08:19.071Z,100900.19
2023-03-18T02:10:49.389Z,100897.54
2023-03-18T02:13:18.848Z,100896.55
2023-03-18T02:15:53.371Z,100899.70
2023-03-18T02:18:28.643Z,100904.63
2023-03-18T02:21:20.796Z,100901.55
2023-03-18T02:23:54.113Z,100905.31
2023-03-18T02:26:33.286Z,100901.23
2023-03-18T02:29:11.520Z,100902.42
2023-03-18T02:31:46.961Z,100905.75
2023-03-18T02:34:15.642Z,100910.14
2023-03-18T02:36:44.140Z,100913.85
2023-03-18T02:39:14.200Z,100919.02
2023-03-18T02:41:43.529Z,100924.18
2023-03-18T02:44:12.368Z,100916.28
2023-03-18T02:46:52.290Z,100920.13
2023-03-18T02:49:21.883Z,100917.17
2023-03-18T02:51:50.651Z,100921.14
2023-03-18T02:54:24.225Z,100922.13
2023-03-18T02:56:52.861Z,100925.35
2023-03-18T02:59:22.167Z,100920.60
2023-03-18T03:01:53.623Z,100920.73
2023-03-18T03:04:23.788Z,100926.30
2023-03-18T03:06:53.110Z,100927.33
2023-03-18T03:09:31.309Z,100925.40
2023-03-18T03:11:59.833Z,100924.12
2023-03-18T03:14:29.339Z,100929.98
2023-03-18T03:17:00.231Z,100928.09
2023-03-18T03:19:31.864Z,100934.42
2023-03-18T03:22:00.949Z,100932.80
2023-03-18T03:24:30.506Z,100933.66
2023-03-18T03:27:00.765Z,100934.34
2023-03-18T03:29:29.543Z,100933.08
2023-03-18T03:31:57.781Z,100936.41
2023-03-18T03:34:26.017Z,100938.35
2023-03-18T03:36:54.305Z,100937.84
2023-03-18T03:39:23.230Z,100939.52
2023-03-18T03:41:53.092Z,100937.67
2023-03-18T03:44:24.656Z,100937.35
2023-03-18T03:46:53.278Z,100938.59
2023-03-18T03:49:23.263Z,100939.15
2023-03-18T03:51:51.549Z,100929.64
2023-03-18T03:54:20.641Z,100936.18
2023-03-18T03:56:50.649Z,100941.11
2023-03-18T03:59:19.540Z,100940.76
2023-03-18T04:02:03.416Z,100940.90
2023-03-18T04:04:32.979Z,100940.73
2023-03-18T04:07:01.474Z,100938.84
2023-03-18T04:09:30.645Z,100937.28
2023-03-18T04:11:58.974Z,100937.71
2023-03-18T04:14:27.274Z,100936.47
2023-03-18T04:16:59.653Z,100938.55
2023-03-18T04:19:30.641Z,100940.00
2023-03-18T04:21:58.920Z,100938.44
2023-03-18T04:24:27.631Z,100938.41
2023-03-18T04:26:55.988Z,100941.84
2023-03-18T04:29:24.569Z,100944.53
2023-03-18T04:31:53.450Z,100947.00
2023-03-18T04:34:22.883Z,100945.13
2023-03-18T04:36:51.566Z,100942.66
2023-03-18T04:39:20.663Z,100944.41
2023-03-18T04:41:50.959Z,100947.98
2023-03-18T04:44:19.487Z,100953.02
2023-03-18T04:46:53.760Z,100952.27
2023-03-18T04:49:22.565Z,100955.35
2023-03-18T04:51:50.964Z,100958.98
2023-03-18T04:54:28.485Z,100960.70
2023-03-18T04:56:58.563Z,100961.55
2023-03-18T04:59:28.575Z,100961.43
2023-03-18T05:01:57.080Z,100961.77
2023-03-18T05:04:26.219Z,100965.23
2023-03-18T05:06:55.812Z,100962.04
2023-03-18T05:09:28.968Z,100960.91
2023-03-18T05:12:01.450Z,100964.02
2023-03-18T05:14:35.460Z,100969.30
2023-03-18T05:17:04.771Z,100968.30
2023-03-18T05:19:37.860Z,100970.38
2023-03-18T05:22:17.785Z,100969.48
2023-03-18T05:24:46.692Z,100968.46
2023-03-18T05:27:17.381Z,100974.48
2023-03-18T05:29:48.518Z,100969.86
2023-03-18T05:32:27.342Z,100972.17
2023-03-18T05:35:01.105Z,100974.35
2023-03-18T05:37:30.088Z,100974.87
2023-03-18T05:40:11.852Z,100970.71
2023-03-18T05:42:55.047Z,100979.36
2023-03-18T05:45:27.831Z,100977.54
2023-03-18T05:47:57.514Z,100978.88
2023-03-18T05:50:35.732Z,100985.56
2023-03-18T05:53:06.460Z,100992.52
2023-03-18T05:55:36.391Z,100992.17
2023-03-18T05:58:05.164Z,100992.23
2023-03-18T06:00:35.692Z,100990.05
2023-03-18T06:03:05.033Z,100992.59
2023-03-18T06:05:34.482Z,100996.64
2023-03-18T06:08:03.298Z,100998.09
2023-03-18T06:10:32.491Z,101002.58
2023-03-18T06:13:02.205Z,101003.20
2023-03-18T06:15:32.575Z,101006.20
2023-03-18T06:18:05.116Z,101005.40
2023-03-18T06:20:34.834Z,101003.48
2023-03-18T06:23:10.215Z,101006.55
2023-03-18T06:25:38.647Z,101000.98
2023-03-18T06:28:07.657Z,101005.20
2023-03-18T06:30:37.363Z,101006.45
2023-03-18T06:33:06.731Z,101007.53
2023-03-18T06:35:38.432Z,101008.61
2023-03-18T06:38:09.155Z,101010.48
2023-03-18T06:40:37.950Z,101012.95
2023-03-18T06:43:07.017Z,101009.45
2023-03-18T06:45:38.468Z,101003.00
2023-03-18T06:48:09.845Z,101007.39
2023-03-18T06:50:42.381Z,100999.54
2023-03-18T06:53:19.193Z,101000.38
2023-03-18T06:55:49.727Z,100998.43
2023-03-18T06:58:18.683Z,101005.56
2023-03-18T07:01:00.654Z,101002.13
2023-03-18T07:03:33.057Z,100997.74
2023-03-18T07:06:02.812Z,101001.36
2023-03-18T07:08:33.921Z,101001.45
2023-03-18T07:11:03.894Z,100999.14
2023-03-18T07:13:34.925Z,101005.64
2023-03-18T07:16:05.821Z,100998.56
2023-03-18T07:18:34.745Z,100990.95
2023-03-18T07:21:11.567Z,100993.77
2023-03-18T07:23:41.232Z,100996.48
2023-03-18T07:26:10.229Z,100993.34
2023-03-18T07:28:39.695Z,100992.75
2023-03-18T07:31:08.010Z,100991.97
2023-03-18T07:33:42.270Z,100997.27
2023-03-18T07:36:10.912Z,101002.48
2023-03-18T07:38:40.171Z,101001.36
2023-03-18T07:41:08.735Z,101004.05
2023-03-18T07:43:37.791Z,100999.77
2023-03-18T07:46:06.951Z,101010.47
2023-03-18T07:48:35.486Z,101008.54
2023-03-18T07:51:03.952Z,101010.72
2023-03-18T07:53:33.810Z,101013.00
2023-03-18T07:56:03.551Z,101005.06
2023-03-18T07:58:38.848Z,101002.09
2023-03-18T08:01:07.780Z,101004.81
2023-03-18T08:03:36.387Z,101000.84
2023-03-18T08:06:06.066Z,101000.32
2023-03-18T08:08:35.010Z,100997.91
2023-03-18T08:11:06.604Z,101000.16
2023-03-18T08:13:38.594Z,101000.10
2023-03-18T08:16:07.264Z,101000.89
2023-03-18T08:18:37.993Z,101003.28
2023-03-18T08:21:07.987Z,101004.63
2023-03-18T08:23:37.424Z,101000.67
2023-03-18T08:26:07.899Z,101006.95
2023-03-18T08:28:36.704Z,101001.40
2023-03-18T08:31:10.384Z,100991.59
2023-03-18T08:33:40.007Z,101004.42
2023-03-18T08:36:08.800Z,101000.64
2023-03-18T08:38:40.541Z,101002.74
2023-03-18T08:41:10.476Z,101007.88
2023-03-18T08:43:39.461Z,100997.71
2023-03-18T08:46:09.122Z,101003.13
2023-03-18T08:48:37.356Z,100996.77
2023-03-18T08:51:08.420Z,101002.25
2023-03-18T08:53:40.590Z,100997.58
2023-03-18T08:56:15.133Z,100997.16
2023-03-18T08:58:46.043Z,100989.98
2023-03-18T09:01:15.187Z,100987.75
2023-03-18T09:03:45.024Z,100989.00
2023-03-18T09:06:13.581Z,100990.07
2023-03-18T09:08:41.879Z,100992.75
2023-03-18T09:11:10.852Z,100986.00
2023-03-18T09:13:39.306Z,100989.23
2023-03-18T09:16:15.008Z,100980.98
2023-03-18T09:18:45.250Z,100982.27
2023-03-18T09:21:15.361Z,100986.42
2023-03-18T09:23:43.951Z,100993.90
2023-03-18T09:26:12.324Z,100986.40
2023-03-18T09:28:43.645Z,100981.16
2023-03-18T09:31:13.807Z,100985.76
2023-03-18T09:33:43.531Z,100984.02
2023-03-18T09:36:12.744Z,100990.98
2023-03-18T09:38:42.852Z,100988.25
2023-03-18T09:41:48.616Z,100994.45
2023-03-18T09:44:21.702Z,100991.12
2023-03-18T09:47:20.898Z,100997.27
2023-03-18T09:49:54.006Z,101000.29
2023-03-18T09:52:22.576Z,100994.14
2023-03-18T09:55:22.626Z,100995.80
2023-03-18T09:57:51.917Z,100992.20
2023-03-18T10:00:37.019Z,100997.17
2023-03-18T10:03:24.343Z,100992.74
2023-03-18T10:05:56.829Z,100996.98
2023-03-18T10:08:35.915Z,100995.30
2023-03-18T10:11:07.060Z,100990.36
2023-03-18T10:13:47.879Z,100992.84
2023-03-18T10:16:29.306Z,100995.91
2023-03-18T10:18:57.539Z,100992.52
2023-03-18T10:22:00.162Z,100993.89
2023-03-18T10:24:46.914Z,100985.02
2023-03-18T10:27:19.346Z,100981.41
2023-03-18T10:29:53.261Z,100982.45
2023-03-18T10:33:13.380Z,100982.45
2023-03-18T10:35:51.560Z,100981.67
2023-03-18T10:38:28.279Z,100986.33
2023-03-18T10:40:56.507Z,100985.50
2023-03-18T10:43:26.396Z,100977.24
2023-03-18T10:46:06.113Z,100975.31
2023-03-18T10:48:38.813Z,100974.83
2023-03-18T10:51:24.965Z,100974.87
2023-03-18T10:54:05.939Z,100970.85
2023-03-18T10:56:36.064Z,100969.63
2023-03-18T10:59:16.317Z,100965.73
2023-03-18T11:01:47.082Z,100968.41
2023-03-18T11:04:19.136Z,100966.64
2023-03-18T11:06:58.358Z,100963.62
2023-03-18T11:09:36.420Z,100966.27
2023-03-18T11:12:06.957Z,100962.38
2023-03-18T11:14:37.541Z,100963.27
2023-03-18T11:17:19.011Z,100964.70
2023-03-18T11:19:49.149Z,100966.65
2023-03-18T11:22:24.293Z,100970.71
2023-03-18T11:25:13.996Z,100969.64
2023-03-18T11:27:51.367Z,100965.39
2023-03-18T11:30:34.120Z,100970.02
2023-03-18T11:33:04.206Z,100958.66
2023-03-18T11:35:57.920Z,100960.37
2023-03-18T11:38:34.746Z,100951.91
2023-03-18T11:41:30.456Z,100949.55
2023-03-18T11:44:03.788Z,100954.06
2023-03-18T11:46:36.613Z,100957.14
2023-03-18T11:52:04.987Z,100949.94
2023-03-18T11:54:56.366Z,100953.44
2023-03-18T11:57:30.484Z,100944.06
2023-03-18T12:00:17.692Z,100942.57
2023-03-18T12:02:46.518Z,100938.25
2023-03-18T12:05:29.242Z,100934.77
2023-03-18T12:08:03.847Z,100932.67
2023-03-18T12:10:50.764Z,100938.88
2023-03-18T12:13:31.702Z,100935.09
2023-03-18T12:16:33.831Z,100924.06
2023-03-18T12:19:19.509Z,100924.84
2023-03-18T12:21:54.078Z,100926.30
2023-03-18T12:24:54.848Z,100930.73
2023-03-18T12:27:48.731Z,100934.21
2023-03-18T12:30:32.699Z,100916.98
2023-03-18T12:33:06.734Z,100918.61
2023-03-18T12:35:42.675Z,100919.02
2023-03-18T12:38:24.441Z,100918.70
2023-03-18T12:41:07.416Z,100917.11
2023-03-18T12:43:37.994Z,100919.92
2023-03-18T12:46:56.654Z,100912.84
2023-03-18T12:49:34.121Z,100912.66
2023-03-18T12:52:03.455Z,100916.05
2023-03-18T12:54:34.394Z,100914.99
2023-03-18T12:57:08.338Z,100911.96
2023-03-18T12:59:43.374Z,100910.35
2023-03-18T13:03:07.698Z,100909.63
2023-03-18T13:05:52.633Z,100908.72
2023-03-18T13:08:41.881Z,100907.79
2023-03-18T13:11:32.768Z,100905.92
2023-03-18T13:14:07.629Z,100899.91
2023-03-18T13:16:37.849Z,100896.23
2023-03-18T13:19:06.855Z,100896.62
2023-03-18T13:21:43.234Z,100898.09
2023-03-18T13:24:11.670Z,100899.12
2023-03-18T13:26:48.990Z,100891.14
2023-03-18T13:29:52.873Z,100882.13
2023-03-18T13:32:50.061Z,100885.38
2023-03-18T13:35:46.187Z,100884.16
2023-03-18T13:38:36.352Z,100886.30
2023-03-18T13:41:17.749Z,100878.86
2023-03-18T13:43:49.435Z,100892.13
2023-03-18T13:46:31.388Z,100890.70
2023-03-18T13:49:16.700Z,100881.67
2023-03-18T13:51:53.693Z,100884.88
2023-03-18T13:54:22.020Z,100887.56
2023-03-18T13:56:58.527Z,100885.61
2023-03-18T13:59:33.366Z,100888.97
2023-03-18T14:02:31.418Z,100889.31
2023-03-18T14:05:00.171Z,100884.73
2023-03-18T14:07:29.736Z,100884.55
2023-03-18T14:10:17.340Z,100893.05
2023-03-18T14:12:51.246Z,100892.16
2023-03-18T14:15:39.578Z,100891.10
2023-03-18T14:18:27.606Z,100884.19
2023-03-18T14:21:00.397Z,100887.38
2023-03-18T14:23:37.607Z,100877.82
2023-03-18T14:26:27.211Z,100879.83
2023-03-18T14:29:04.883Z,100879.29
2023-03-18T14:31:40.709Z,100875.56
2023-03-18T14:34:18.245Z,100871.66
2023-03-18T14:37:04.837Z,100877.52
2023-03-18T14:39:48.182Z,100871.84
2023-03-18T14:42:23.876Z,100871.10
2023-03-18T14:44:59.403Z,100870.06
2023-03-18T14:47:39.513Z,100865.64
2023-03-18T14:50:40.705Z,100870.08
2023-03-18T14:53:35.628Z,100868.83
2023-03-18T14:56:05.202Z,100869.01
2023-03-18T14:58:35.947Z,100864.76
2023-03-18T15:01:05.762Z,100868.11
2023-03-18T15:03:34.614Z,100867.95
2023-03-18T15:06:04.318Z,100866.53
2023-03-18T15:08:47.442Z,100866.72
2023-03-18T15:11:16.837Z,100861.89
2023-03-18T15:13:47.298Z,100865.08
2023-03-18T15:16:18.987Z,100862.44
2023-03-18T15:18:52.905Z,100864.94
2023-03-18T15:21:26.143Z,100858.39
2023-03-18T15:24:03.817Z,100860.33
2023-03-18T15:26:38.786Z,100855.17
2023-03-18T15:29:28.742Z,100860.83
2023-03-18T15:32:30.707Z,100858.52
2023-03-18T15:35:11.414Z,100857.28
2023-03-18T15:37:42.621Z,100858.69
2023-03-18T15:40:29.509Z,100859.21
2023-03-18T15:43:25.081Z,100857.27
2023-03-18T15:46:05.124Z,100863.81
2023-03-18T15:48:39.797Z,100861.15
2023-03-18T15:51:22.600Z,100859.73
2023-03-18T15:53:59.373Z,100860.95
2023-03-18T15:56:32.564Z,100857.59
2023-03-18T15:59:13.237Z,100858.31
2023-03-18T16:01:41.725Z,100860.79
2023-03-18T16:04:14.908Z,100862.02
2023-03-18T16:06:44.630Z,100858.32
2023-03-18T16:09:17.668Z,100859.38
2023-03-18T16:11:58.608Z,100858.84
2023-03-18T16:14:37.657Z,100859.39
2023-03-18T16:17:06.096Z,100862.95
2023-03-18T16:19:39.592Z,100861.35
2023-03-18T16:22:08.756Z,100863.48
2023-03-18T16:24:37.813Z,100866.86
2023-03-18T16:27:07.297Z,100868.45
2023-03-18T16:29:38.332Z,100866.88
2023-03-18T16:32:08.371Z,100871.31
2023-03-18T16:34:36.840Z,100866.88
2023-03-18T16:37:05.447Z,100868.48
2023-03-18T16:39:36.981Z,100870.77
2023-03-18T16:42:08.785Z,100872.02
2023-03-18T16:44:37.045Z,100872.73
2023-03-18T16:47:06.172Z,100869.55
2023-03-18T16:49:37.478Z,100871.14
2023-03-18T16:52:06.869Z,100868.66
2023-03-18T16:54:35.139Z,100869.01
2023-03-18T16:57:07.062Z,100872.55
2023-03-18T16:59:36.665Z,100873.26
2023-03-18T17:02:06.224Z,100875.04
2023-03-18T17:04:35.004Z,100871.29
2023-03-18T17:07:04.840Z,100866.31
2023-03-18T17:09:35.036Z,100867.38
2023-03-18T17:12:07.576Z,100872.33
2023-03-18T17:14:38.803Z,100874.98
2023-03-18T17:17:09.012Z,100877.29
2023-03-18T17:19:37.276Z,100879.21
2023-03-18T17:22:22.859Z,100881.68
2023-03-18T17:24:51.761Z,100883.08
2023-03-18T17:27:29.717Z,100883.25
2023-03-18T17:29:57.898Z,100885.01
2023-03-18T17:32:27.491Z,100889.77
2023-03-18T17:34:58.208Z,100892.59
2023-03-18T17:37:26.999Z,100893.45
2023-03-18T17:39:57.292Z,100896.09
2023-03-18T17:42:30.482Z,100892.36
2023-03-18T17:45:06.045Z,100890.94
2023-03-18T17:47:34.458Z,100890.05
2023-03-18T17:50:05.036Z,100891.11
2023-03-18T17:52:34.137Z,100890.41
2023-03-18T17:55:02.436Z,100892.88
2023-03-18T17:57:32.977Z,100893.77
2023-03-18T18:00:01.152Z,100889.86
2023-03-18T18:02:29.951Z,100888.97
2023-03-18T18:05:03.818Z,100888.77
2023-03-18T18:07:32.510Z,100891.77
2023-03-18T18:10:01.400Z,100890.85
2023-03-18T18:12:31.531Z,100892.77
2023-03-18T18:15:00.147Z,100897.17
2023-03-18T18:17:28.590Z,100896.08
2023-03-18T18:19:57.796Z,100897.11
2023-03-18T18:22:26.794Z,100893.52
2023-03-18T18:25:00.691Z,100892.26
2023-03-18T18:27:28.993Z,100894.00
2023-03-18T18:29:57.762Z,100891.50
2023-03-18T18:32:26.946Z,100893.94
2023-03-18T18:34:56.069Z,100896.20
2023-03-18T18:37:25.260Z,100896.20
2023-03-18T18:39:53.566Z,100897.60
2023-03-18T18:42:22.016Z,100897.08
2023-03-18T18:44:52.865Z,100897.23
2023-03-18T18:47:22.198Z,100899.33
2023-03-18T18:49:51.262Z,100900.38
2023-03-18T18:52:19.947Z,100900.19
2023-03-18T18:54:48.464Z,100897.51
2023-03-18T18:57:26.845Z,100899.23
2023-03-18T18:59:55.819Z,100902.40
2023-03-18T19:02:35.325Z,100905.52
2023-03-18T19:05:04.982Z,100902.48
2023-03-18T19:07:34.000Z,100905.46
2023-03-18T19:10:02.563Z,100907.54
2023-03-18T19:12:31.060Z,100906.27
2023-03-18T19:15:00.044Z,100903.20
2023-03-18T19:17:29.271Z,100906.52
2023-03-18T19:19:58.734Z,100909.86
2023-03-18T19:22:28.661Z,100909.70
2023-03-18T19:24:57.366Z,100909.15
2023-03-18T19:27:27.973Z,100910.35
2023-03-18T19:29:58.133Z,100913.83
2023-03-18T19:32:27.122Z,100918.39
2023-03-18T19:34:59.484Z,100916.73
2023-03-18T19:37:29.513Z,100915.64
2023-03-18T19:39:58.176Z,100912.07
2023-03-18T19:42:27.077Z,100911.67
2023-03-18T19:44:56.792Z,100908.98
2023-03-18T19:47:28.732Z,100904.05
2023-03-18T19:49:57.636Z,100905.14
2023-03-18T19:52:27.395Z,100901.81
2023-03-18T19:54:56.373Z,100902.10
2023-03-18T19:57:29.574Z,100899.15
2023-03-18T20:00:01.500Z,100899.02
2023-03-18T20:02:33.178Z,100895.04
2023-03-18T20:05:03.820Z,100897.10
2023-03-18T20:07:33.100Z,100889.85
2023-03-18T20:10:02.024Z,100892.98
2023-03-18T20:12:42.818Z,100890.65
2023-03-18T20:15:20.289Z,100890.92
2023-03-18T20:17:49.551Z,100893.21
2023-03-18T20:20:25.931Z,100890.80
2023-03-18T20:22:57.016Z,100888.89
2023-03-18T20:25:32.606Z,100891.00
2023-03-18T20:28:04.849Z,100889.67
2023-03-18T20:30:35.962Z,100888.54
2023-03-18T20:33:17.518Z,100886.87
2023-03-18T20:35:47.137Z,100881.15
2023-03-18T20:38:20.217Z,100882.48
2023-03-18T20:40:51.180Z,100882.38
2023-03-18T20:43:22.483Z,100882.13
2023-03-18T20:45:53.193Z,100885.77
2023-03-18T20:48:22.547Z,100880.23
2023-03-18T20:50:52.154Z,100878.63
2023-03-18T20:53:25.346Z,100877.23
2023-03-18T20:55:53.971Z,100876.04
2023-03-18T20:58:26.460Z,100877.02
2023-03-18T21:00:55.515Z,100878.20
2023-03-18T21:03:29.601Z,100876.19
2023-03-18T21:05:59.334Z,100876.48
2023-03-18T21:08:28.474Z,100873.39
2023-03-18T21:11:04.105Z,100872.45
2023-03-18T21:13:36.423Z,100873.61
2023-03-18T21:16:11.055Z,100876.52
2023-03-18T21:18:45.590Z,100880.55
2023-03-18T21:21:25.143Z,100879.61
2023-03-18T21:23:54.002Z,100876.42
2023-03-18T21:26:23.362Z,100875.74
2023-03-18T21:28:52.773Z,100876.34
2023-03-18T21:31:24.133Z,100876.37
2023-03-18T21:33:53.705Z,100874.94
2023-03-18T21:36:22.621Z,100875.08
2023-03-18T21:38:50.768Z,100875.40
2023-03-18T21:41:20.441Z,100870.95
2023-03-18T21:43:53.467Z,100869.67
2023-03-18T21:46:24.724Z,100874.19
2023-03-18T21:48:53.192Z,100873.90
2023-03-18T21:51:39.607Z,100876.19
2023-03-18T21:54:18.468Z,100876.19
2023-03-18T21:56:48.074Z,100879.52
2023-03-18T21:59:16.834Z,100883.48
2023-03-18T22:01:46.886Z,100879.77
2023-03-18T22:04:15.372Z,100880.13
2023-03-18T22:06:43.835Z,100881.69
2023-03-18T22:09:14.779Z,100882.18
2023-03-18T22:11:43.845Z,100880.01
2023-03-18T22:14:13.761Z,100885.98
2023-03-18T22:16:42.759Z,100884.09
2023-03-18T22:19:11.349Z,100883.66
2023-03-18T22:21:40.818Z,100880.10
2023-03-18T22:24:13.947Z,100883.23
2023-03-18T22:26:42.073Z,100881.55
2023-03-18T22:29:12.852Z,100879.80
2023-03-18T22:31:43.914Z,100880.66
2023-03-18T22:34:22.799Z,100882.99
2023-03-18T22:36:51.916Z,100882.35
2023-03-18T22:39:20.242Z,100877.80
2023-03-18T22:41:53.897Z,100879.54
2023-03-18T22:44:22.961Z,100874.55
2023-03-18T22:46:51.543Z,100875.62
2023-03-18T22:49:20.163Z,100875.34
2023-03-18T22:51:49.183Z,100875.67
2023-03-18T22:54:18.626Z,100870.84
2023-03-18T22:56:47.362Z,100872.27
2023-03-18T22:59:15.734Z,100871.41
2023-03-18T23:01:44.942Z,100871.11
2023-03-18T23:04:13.504Z,100872.70
2023-03-18T23:06:44.400Z,100872.52
2023-03-18T23:09:13.448Z,100874.09
2023-03-18T23:11:42.136Z,100867.94
2023-03-18T23:14:11.236Z,100870.02
2023-03-18T23:16:41.132Z,100861.60
2023-03-18T23:19:09.748Z,100859.18
2023-03-18T23:21:38.009Z,100855.16
2023-03-18T23:24:07.463Z,100847.09
2023-03-18T23:26:36.825Z,100844.27
2023-03-18T23:29:06.323Z,100841.42
2023-03-18T23:31:34.651Z,100841.44
2023-03-18T23:34:03.905Z,100838.80
2023-03-18T23:36:32.928Z,100836.12
2023-03-18T23:39:01.397Z,100836.07
2023-03-18T23:41:30.994Z,100837.42
2023-03-18T23:44:03.701Z,100835.73
2023-03-18T23:46:33.045Z,100832.80
2023-03-18T23:49:01.560Z,100829.38
2023-03-18T23:51:30.158Z,100820.27
2023-03-18T23:53:58.419Z,100823.13
2023-03-18T23:56:26.463Z,100812.58
2023-03-18T23:58:55.079Z,100817.02
